sensor_id;sensor_type;location;lat;lon;timestamp;pressure;altitude;pressure_sealevel;temperature
34901;BMP280;21112;51.976;5.660;2023-07-13T00:00:26;100584.13;;;15.82
34901;BMP280;21112;51.976;5.660;2023-07-13T00:02:53;100584.34;;;15.78
34901;BMP280;21112;51.976;5.660;2023-07-13T00:05:20;100586.41;;;15.70
34901;BMP280;21112;51.976;5.660;2023-07-13T00:07:48;100589.16;;;15.65
34901;BMP280;21112;51.976;5.660;2023-07-13T00:10:15;100584.13;;;15.64
34901;BMP280;21112;51.976;5.660;2023-07-13T00:12:44;100594.53;;;15.58
34901;BMP280;21112;51.976;5.660;2023-07-13T00:15:12;100588.09;;;15.51
34901;BMP280;21112;51.976;5.660;2023-07-13T00:17:39;100582.34;;;15.47
34901;BMP280;21112;51.976;5.660;2023-07-13T00:20:08;100580.72;;;15.46
34901;BMP280;21112;51.976;5.660;2023-07-13T00:22:35;100587.63;;;15.43
34901;BMP280;21112;51.976;5.660;2023-07-13T00:25:03;100585.00;;;15.44
34901;BMP280;21112;51.976;5.660;2023-07-13T00:27:31;100592.91;;;15.38
34901;BMP280;21112;51.976;5.660;2023-07-13T00:30:00;100582.00;;;15.36
34901;BMP280;21112;51.976;5.660;2023-07-13T00:32:27;100584.63;;;15.35
34901;BMP280;21112;51.976;5.660;2023-07-13T00:34:55;100588.13;;;15.31
34901;BMP280;21112;51.976;5.660;2023-07-13T00:37:22;100584.00;;;15.28
34901;BMP280;21112;51.976;5.660;2023-07-13T00:39:49;100579.22;;;15.22
34901;BMP280;21112;51.976;5.660;2023-07-13T00:42:16;100584.69;;;15.13
34901;BMP280;21112;51.976;5.660;2023-07-13T00:45:02;100586.47;;;15.11
34901;BMP280;21112;51.976;5.660;2023-07-13T00:47:29;100586.56;;;15.08
34901;BMP280;21112;51.976;5.660;2023-07-13T00:49:56;100595.00;;;15.09
34901;BMP280;21112;51.976;5.660;2023-07-13T00:52:23;100589.25;;;15.05
34901;BMP280;21112;51.976;5.660;2023-07-13T00:54:50;100595.16;;;15.04
34901;BMP280;21112;51.976;5.660;2023-07-13T00:57:20;100588.41;;;15.05
34901;BMP280;21112;51.976;5.660;2023-07-13T00:59:52;100596.84;;;15.05
34901;BMP280;21112;51.976;5.660;2023-07-13T01:02:20;100605.28;;;15.04
34901;BMP280;21112;51.976;5.660;2023-07-13T01:04:48;100597.78;;;15.03
34901;BMP280;21112;51.976;5.660;2023-07-13T01:07:15;100596.97;;;15.02
34901;BMP280;21112;51.976;5.660;2023-07-13T01:09:42;100596.16;;;15.02
34901;BMP280;21112;51.976;5.660;2023-07-13T01:12:11;100600.44;;;15.00
34901;BMP280;21112;51.976;5.660;2023-07-13T01:14:39;100612.13;;;15.02
34901;BMP280;21112;51.976;5.660;2023-07-13T01:17:09;100611.44;;;14.99
34901;BMP280;21112;51.976;5.660;2023-07-13T01:19:40;100608.03;;;15.00
34901;BMP280;21112;51.976;5.660;2023-07-13T01:22:11;100606.19;;;15.03
34901;BMP280;21112;51.976;5.660;2023-07-13T01:24:40;100607.75;;;15.06
34901;BMP280;21112;51.976;5.660;2023-07-13T01:27:09;100606.81;;;15.08
34901;BMP280;21112;51.976;5.660;2023-07-13T01:29:38;100590.06;;;15.06
34901;BMP280;21112;51.976;5.660;2023-07-13T01:32:09;100606.97;;;15.05
34901;BMP280;21112;51.976;5.660;2023-07-13T01:34:38;100595.31;;;15.01
34901;BMP280;21112;51.976;5.660;2023-07-13T01:37:09;100598.09;;;14.95
34901;BMP280;21112;51.976;5.660;2023-07-13T01:39:36;100602.41;;;14.93
34901;BMP280;21112;51.976;5.660;2023-07-13T01:42:04;100598.34;;;14.89
34901;BMP280;21112;51.976;5.660;2023-07-13T01:44:31;100603.50;;;14.88
34901;BMP280;21112;51.976;5.660;2023-07-13T01:46:58;100603.50;;;14.88
34901;BMP280;21112;51.976;5.660;2023-07-13T01:49:25;100601.78;;;14.88
34901;BMP280;21112;51.976;5.660;2023-07-13T01:51:52;100602.72;;;14.86
34901;BMP280;21112;51.976;5.660;2023-07-13T01:54:20;100601.06;;;14.85
34901;BMP280;21112;51.976;5.660;2023-07-13T01:56:47;100602.91;;;14.81
34901;BMP280;21112;51.976;5.660;2023-07-13T01:59:14;100597.16;;;14.78
34901;BMP280;21112;51.976;5.660;2023-07-13T02:01:41;100610.88;;;14.72
34901;BMP280;21112;51.976;5.660;2023-07-13T02:04:08;100606.03;;;14.68
34901;BMP280;21112;51.976;5.660;2023-07-13T02:06:36;100617.19;;;14.62
34901;BMP280;21112;51.976;5.660;2023-07-13T02:09:03;100614.78;;;14.59
34901;BMP280;21112;51.976;5.660;2023-07-13T02:11:32;100605.72;;;14.54
34901;BMP280;21112;51.976;5.660;2023-07-13T02:14:00;100615.28;;;14.47
34901;BMP280;21112;51.976;5.660;2023-07-13T02:16:27;100623.09;;;14.41
34901;BMP280;21112;51.976;5.660;2023-07-13T02:18:54;100622.28;;;14.41
34901;BMP280;21112;51.976;5.660;2023-07-13T02:21:22;100626.50;;;14.40
34901;BMP280;21112;51.976;5.660;2023-07-13T02:23:49;100624.88;;;14.39
34901;BMP280;21112;51.976;5.660;2023-07-13T02:26:16;100619.88;;;14.38
34901;BMP280;21112;51.976;5.660;2023-07-13T02:28:45;100630.09;;;14.35
34901;BMP280;21112;51.976;5.660;2023-07-13T02:31:14;100627.72;;;14.30
34901;BMP280;21112;51.976;5.660;2023-07-13T02:33:41;100632.16;;;14.25
34901;BMP280;21112;51.976;5.660;2023-07-13T02:36:08;100632.88;;;14.29
34901;BMP280;21112;51.976;5.660;2023-07-13T02:38:36;100627.72;;;14.30
34901;BMP280;21112;51.976;5.660;2023-07-13T02:41:03;100625.38;;;14.26
34901;BMP280;21112;51.976;5.660;2023-07-13T02:43:31;100630.63;;;14.21
34901;BMP280;21112;51.976;5.660;2023-07-13T02:46:00;100631.63;;;14.17
34901;BMP280;21112;51.976;5.660;2023-07-13T02:48:32;100630.81;;;14.15
34901;BMP280;21112;51.976;5.660;2023-07-13T02:50:59;100631.88;;;14.10
34901;BMP280;21112;51.976;5.660;2023-07-13T02:53:26;100632.03;;;14.07
34901;BMP280;21112;51.976;5.660;2023-07-13T02:55:53;100626.13;;;14.06
34901;BMP280;21112;51.976;5.660;2023-07-13T02:58:20;100620.31;;;14.04
34901;BMP280;21112;51.976;5.660;2023-07-13T03:00:48;100633.66;;;14.08
34901;BMP280;21112;51.976;5.660;2023-07-13T03:03:17;100628.72;;;14.05
34901;BMP280;21112;51.976;5.660;2023-07-13T03:05:45;100637.16;;;14.04
34901;BMP280;21112;51.976;5.660;2023-07-13T03:08:15;100642.34;;;14.01
34901;BMP280;21112;51.976;5.660;2023-07-13T03:10:43;100641.66;;;13.97
34901;BMP280;21112;51.976;5.660;2023-07-13T03:13:10;100640.84;;;13.95
34901;BMP280;21112;51.976;5.660;2023-07-13T03:15:37;100644.16;;;13.97
34901;BMP280;21112;51.976;5.660;2023-07-13T03:18:04;100652.50;;;13.99
34901;BMP280;21112;51.976;5.660;2023-07-13T03:20:34;100648.44;;;13.95
34901;BMP280;21112;51.976;5.660;2023-07-13T03:23:00;100648.50;;;13.94
34901;BMP280;21112;51.976;5.660;2023-07-13T03:25:28;100651.88;;;13.93
34901;BMP280;21112;51.976;5.660;2023-07-13T03:27:55;100657.03;;;13.91
34901;BMP280;21112;51.976;5.660;2023-07-13T03:30:22;100662.06;;;13.91
34901;BMP280;21112;51.976;5.660;2023-07-13T03:32:49;100660.44;;;13.90
34901;BMP280;21112;51.976;5.660;2023-07-13T03:35:16;100664.63;;;13.90
34901;BMP280;21112;51.976;5.660;2023-07-13T03:37:45;100656.94;;;13.93
34901;BMP280;21112;51.976;5.660;2023-07-13T03:40:13;100667.22;;;13.88
34901;BMP280;21112;51.976;5.660;2023-07-13T03:42:42;100660.56;;;13.86
34901;BMP280;21112;51.976;5.660;2023-07-13T03:45:09;100666.47;;;13.86
34901;BMP280;21112;51.976;5.660;2023-07-13T03:47:36;100665.56;;;13.87
34901;BMP280;21112;51.976;5.660;2023-07-13T03:50:04;100677.28;;;13.90
34901;BMP280;21112;51.976;5.660;2023-07-13T03:52:31;100684.00;;;13.89
34901;BMP280;21112;51.976;5.660;2023-07-13T03:55:00;100679.78;;;13.90
34901;BMP280;21112;51.976;5.660;2023-07-13T03:57:27;100683.16;;;13.90
34901;BMP280;21112;51.976;5.660;2023-07-13T03:59:53;100681.47;;;13.89
34901;BMP280;21112;51.976;5.660;2023-07-13T04:02:20;100679.03;;;13.88
34901;BMP280;21112;51.976;5.660;2023-07-13T04:04:47;100682.44;;;13.87
34901;BMP280;21112;51.976;5.660;2023-07-13T04:07:14;100689.94;;;13.88
34901;BMP280;21112;51.976;5.660;2023-07-13T04:09:41;100698.31;;;13.90
34901;BMP280;21112;51.976;5.660;2023-07-13T04:12:10;100687.38;;;13.90
34901;BMP280;21112;51.976;5.660;2023-07-13T04:14:37;100686.53;;;13.89
34901;BMP280;21112;51.976;5.660;2023-07-13T04:17:04;100695.69;;;13.92
34901;BMP280;21112;51.976;5.660;2023-07-13T04:19:31;100687.31;;;13.91
34901;BMP280;21112;51.976;5.660;2023-07-13T04:21:58;100701.59;;;13.92
34901;BMP280;21112;51.976;5.660;2023-07-13T04:24:25;100697.28;;;13.94
34901;BMP280;21112;51.976;5.660;2023-07-13T04:26:52;100700.50;;;13.99
34901;BMP280;21112;51.976;5.660;2023-07-13T04:29:21;100697.06;;;14.00
34901;BMP280;21112;51.976;5.660;2023-07-13T04:31:47;100703.69;;;14.04
34901;BMP280;21112;51.976;5.660;2023-07-13T04:34:14;100704.31;;;14.09
34901;BMP280;21112;51.976;5.660;2023-07-13T04:36:42;100714.88;;;14.20
34901;BMP280;21112;51.976;5.660;2023-07-13T04:39:09;100704.41;;;14.29
34901;BMP280;21112;51.976;5.660;2023-07-13T04:41:36;100704.09;;;14.38
34901;BMP280;21112;51.976;5.660;2023-07-13T04:44:03;100709.97;;;14.39
34901;BMP280;21112;51.976;5.660;2023-07-13T04:46:32;100708.09;;;14.44
34901;BMP280;21112;51.976;5.660;2023-07-13T04:48:59;100704.56;;;14.48
34901;BMP280;21112;51.976;5.660;2023-07-13T04:51:26;100703.56;;;14.52
34901;BMP280;21112;51.976;5.660;2023-07-13T04:53:53;100701.72;;;14.55
34901;BMP280;21112;51.976;5.660;2023-07-13T04:56:20;100709.09;;;14.61
34901;BMP280;21112;51.976;5.660;2023-07-13T04:58:47;100710.53;;;14.67
34901;BMP280;21112;51.976;5.660;2023-07-13T05:01:14;100711.13;;;14.73
34901;BMP280;21112;51.976;5.660;2023-07-13T05:03:43;100713.44;;;14.79
34901;BMP280;21112;51.976;5.660;2023-07-13T05:06:10;100713.19;;;14.85
34901;BMP280;21112;51.976;5.660;2023-07-13T05:08:39;100710.47;;;14.90
34901;BMP280;21112;51.976;5.660;2023-07-13T05:11:06;100728.00;;;14.94
34901;BMP280;21112;51.976;5.660;2023-07-13T05:13:33;100722.97;;;14.93
34901;BMP280;21112;51.976;5.660;2023-07-13T05:16:02;100722.78;;;14.97
34901;BMP280;21112;51.976;5.660;2023-07-13T05:18:31;100731.69;;;15.07
34901;BMP280;21112;51.976;5.660;2023-07-13T05:21:01;100730.69;;;15.11
34901;BMP280;21112;51.976;5.660;2023-07-13T05:23:30;100731.53;;;15.10
34901;BMP280;21112;51.976;5.660;2023-07-13T05:25:58;100726.13;;;15.19
34901;BMP280;21112;51.976;5.660;2023-07-13T05:28:25;100739.28;;;15.27
34901;BMP280;21112;51.976;5.660;2023-07-13T05:30:54;100742.41;;;15.34
34901;BMP280;21112;51.976;5.660;2023-07-13T05:33:22;100732.22;;;15.35
34901;BMP280;21112;51.976;5.660;2023-07-13T05:35:49;100738.44;;;15.27
34901;BMP280;21112;51.976;5.660;2023-07-13T05:38:17;100735.44;;;15.39
34901;BMP280;21112;51.976;5.660;2023-07-13T05:40:47;100745.00;;;15.52
34901;BMP280;21112;51.976;5.660;2023-07-13T05:43:14;100749.69;;;15.61
34901;BMP280;21112;51.976;5.660;2023-07-13T05:45:41;100750.50;;;15.62
34901;BMP280;21112;51.976;5.660;2023-07-13T05:48:08;100760.19;;;15.72
34901;BMP280;21112;51.976;5.660;2023-07-13T05:50:35;100758.16;;;15.80
34901;BMP280;21112;51.976;5.660;2023-07-13T05:53:03;100754.94;;;15.95
34901;BMP280;21112;51.976;5.660;2023-07-13T05:55:32;100750.09;;;15.91
34901;BMP280;21112;51.976;5.660;2023-07-13T05:58:00;100753.41;;;15.73
34901;BMP280;21112;51.976;5.660;2023-07-13T06:00:27;100748.06;;;15.79
34901;BMP280;21112;51.976;5.660;2023-07-13T06:02:56;100753.56;;;15.88
34901;BMP280;21112;51.976;5.660;2023-07-13T06:05:25;100752.19;;;16.00
34901;BMP280;21112;51.976;5.660;2023-07-13T06:07:54;100751.78;;;16.08
34901;BMP280;21112;51.976;5.660;2023-07-13T06:10:21;100750.91;;;16.28
34901;BMP280;21112;51.976;5.660;2023-07-13T06:12:49;100759.84;;;16.55
34901;BMP280;21112;51.976;5.660;2023-07-13T06:15:17;100759.50;;;16.44
34901;BMP280;21112;51.976;5.660;2023-07-13T06:17:44;100756.53;;;16.34
34901;BMP280;21112;51.976;5.660;2023-07-13T06:20:12;100762.72;;;16.47
34901;BMP280;21112;51.976;5.660;2023-07-13T06:22:39;100769.16;;;16.90
34901;BMP280;21112;51.976;5.660;2023-07-13T06:25:09;100768.53;;;17.20
34901;BMP280;21112;51.976;5.660;2023-07-13T06:27:36;100772.34;;;17.29
34901;BMP280;21112;51.976;5.660;2023-07-13T06:30:06;100773.97;;;16.96
34901;BMP280;21112;51.976;5.660;2023-07-13T06:32:33;100776.84;;;16.88
34901;BMP280;21112;51.976;5.660;2023-07-13T06:35:00;100779.19;;;17.10
34901;BMP280;21112;51.976;5.660;2023-07-13T06:37:27;100778.44;;;17.25
34901;BMP280;21112;51.976;5.660;2023-07-13T06:39:54;100774.81;;;17.30
34901;BMP280;21112;51.976;5.660;2023-07-13T06:42:21;100775.09;;;17.24
34901;BMP280;21112;51.976;5.660;2023-07-13T06:44:51;100784.66;;;17.19
34901;BMP280;21112;51.976;5.660;2023-07-13T06:47:19;100788.97;;;17.34
34901;BMP280;21112;51.976;5.660;2023-07-13T06:49:46;100776.59;;;17.28
34901;BMP280;21112;51.976;5.660;2023-07-13T06:52:13;100783.00;;;17.35
34901;BMP280;21112;51.976;5.660;2023-07-13T06:54:40;100783.50;;;17.43
34901;BMP280;21112;51.976;5.660;2023-07-13T06:57:09;100789.84;;;17.52
34901;BMP280;21112;51.976;5.660;2023-07-13T06:59:36;100782.94;;;17.88
34901;BMP280;21112;51.976;5.660;2023-07-13T07:02:03;100781.41;;;18.01
34901;BMP280;21112;51.976;5.660;2023-07-13T07:04:32;100781.06;;;17.91
34901;BMP280;21112;51.976;5.660;2023-07-13T07:06:59;100784.56;;;17.89
34901;BMP280;21112;51.976;5.660;2023-07-13T07:09:26;100787.19;;;17.87
34901;BMP280;21112;51.976;5.660;2023-07-13T07:11:55;100796.75;;;18.15
34901;BMP280;21112;51.976;5.660;2023-07-13T07:14:22;100793.97;;;18.19
34901;BMP280;21112;51.976;5.660;2023-07-13T07:16:49;100788.50;;;17.94
34901;BMP280;21112;51.976;5.660;2023-07-13T07:19:19;100789.22;;;17.81
34901;BMP280;21112;51.976;5.660;2023-07-13T07:21:48;100792.31;;;18.03
34901;BMP280;21112;51.976;5.660;2023-07-13T07:24:15;100802.03;;;17.95
34901;BMP280;21112;51.976;5.660;2023-07-13T07:26:42;100811.97;;;17.67
34901;BMP280;21112;51.976;5.660;2023-07-13T07:29:09;100802.28;;;17.73
34901;BMP280;21112;51.976;5.660;2023-07-13T07:31:36;100798.94;;;18.05
34901;BMP280;21112;51.976;5.660;2023-07-13T07:34:06;100791.88;;;18.74
34901;BMP280;21112;51.976;5.660;2023-07-13T07:36:35;100803.63;;;18.45
34901;BMP280;21112;51.976;5.660;2023-07-13T07:39:04;100808.91;;;18.25
34901;BMP280;21112;51.976;5.660;2023-07-13T07:41:32;100804.06;;;18.21
34901;BMP280;21112;51.976;5.660;2023-07-13T07:43:59;100809.00;;;18.24
34901;BMP280;21112;51.976;5.660;2023-07-13T07:46:26;100804.06;;;18.21
34901;BMP280;21112;51.976;5.660;2023-07-13T07:48:53;100808.38;;;18.36
34901;BMP280;21112;51.976;5.660;2023-07-13T07:51:20;100804.00;;;18.84
34901;BMP280;21112;51.976;5.660;2023-07-13T07:53:48;100793.59;;;19.34
34901;BMP280;21112;51.976;5.660;2023-07-13T07:56:18;100781.47;;;19.08
34901;BMP280;21112;51.976;5.660;2023-07-13T07:58:46;100787.66;;;19.04
34901;BMP280;21112;51.976;5.660;2023-07-13T08:01:13;100789.41;;;18.88
34901;BMP280;21112;51.976;5.660;2023-07-13T08:03:41;100783.69;;;18.69
34901;BMP280;21112;51.976;5.660;2023-07-13T08:06:10;100778.56;;;19.73
34901;BMP280;21112;51.976;5.660;2023-07-13T08:08:38;100766.53;;;20.45
34901;BMP280;21112;51.976;5.660;2023-07-13T08:11:07;100775.41;;;20.66
34901;BMP280;21112;51.976;5.660;2023-07-13T08:13:37;100785.50;;;20.81
34901;BMP280;21112;51.976;5.660;2023-07-13T08:16:05;100784.63;;;21.21
34901;BMP280;21112;51.976;5.660;2023-07-13T08:18:32;100784.72;;;20.67
34901;BMP280;21112;51.976;5.660;2023-07-13T08:21:03;100778.78;;;19.98
34901;BMP280;21112;51.976;5.660;2023-07-13T08:23:30;100781.97;;;19.73
34901;BMP280;21112;51.976;5.660;2023-07-13T08:25:57;100790.06;;;19.80
34901;BMP280;21112;51.976;5.660;2023-07-13T08:28:27;100784.63;;;21.21
34901;BMP280;21112;51.976;5.660;2023-07-13T08:31:00;100789.41;;;19.62
34901;BMP280;21112;51.976;5.660;2023-07-13T08:33:27;100784.59;;;19.13
34901;BMP280;21112;51.976;5.660;2023-07-13T08:35:54;100789.75;;;19.27
34901;BMP280;21112;51.976;5.660;2023-07-13T08:38:22;100776.63;;;20.06
34901;BMP280;21112;51.976;5.660;2023-07-13T08:40:50;100772.56;;;20.02
34901;BMP280;21112;51.976;5.660;2023-07-13T08:43:22;100765.94;;;20.68
34901;BMP280;21112;51.976;5.660;2023-07-13T08:45:53;100756.88;;;22.04
34901;BMP280;21112;51.976;5.660;2023-07-13T08:48:27;100754.41;;;22.74
34901;BMP280;21112;51.976;5.660;2023-07-13T08:50:57;100741.66;;;22.26
34901;BMP280;21112;51.976;5.660;2023-07-13T08:53:32;100753.84;;;21.74
34901;BMP280;21112;51.976;5.660;2023-07-13T08:56:03;100756.81;;;22.29
34901;BMP280;21112;51.976;5.660;2023-07-13T08:58:31;100760.28;;;23.11
34901;BMP280;21112;51.976;5.660;2023-07-13T09:01:04;100767.31;;;21.89
34901;BMP280;21112;51.976;5.660;2023-07-13T09:06:23;100778.09;;;20.10
34901;BMP280;21112;51.976;5.660;2023-07-13T09:08:58;100779.84;;;19.80
34901;BMP280;21112;51.976;5.660;2023-07-13T09:11:35;100792.38;;;19.55
34901;BMP280;21112;51.976;5.660;2023-07-13T09:14:18;100800.88;;;19.26
34901;BMP280;21112;51.976;5.660;2023-07-13T09:16:50;100795.97;;;19.23
34901;BMP280;21112;51.976;5.660;2023-07-13T09:19:22;100804.81;;;19.16
34901;BMP280;21112;51.976;5.660;2023-07-13T09:21:51;100812.63;;;18.97
34901;BMP280;21112;51.976;5.660;2023-07-13T09:24:29;100810.19;;;18.65
34901;BMP280;21112;51.976;5.660;2023-07-13T09:26:58;100823.34;;;18.25
34901;BMP280;21112;51.976;5.660;2023-07-13T09:29:29;100813.91;;;18.11
34901;BMP280;21112;51.976;5.660;2023-07-13T09:32:01;100824.97;;;18.26
34901;BMP280;21112;51.976;5.660;2023-07-13T09:34:32;100820.34;;;18.34
34901;BMP280;21112;51.976;5.660;2023-07-13T09:37:00;100819.38;;;18.67
34901;BMP280;21112;51.976;5.660;2023-07-13T09:39:30;100818.94;;;19.06
34901;BMP280;21112;51.976;5.660;2023-07-13T09:42:01;100813.25;;;19.16
34901;BMP280;21112;51.976;5.660;2023-07-13T09:44:35;100812.69;;;19.27
34901;BMP280;21112;51.976;5.660;2023-07-13T09:47:13;100801.31;;;20.60
34901;BMP280;21112;51.976;5.660;2023-07-13T09:49:45;100805.56;;;21.90
34901;BMP280;21112;51.976;5.660;2023-07-13T09:52:15;100802.91;;;22.04
34901;BMP280;21112;51.976;5.660;2023-07-13T09:54:45;100804.94;;;22.96
34901;BMP280;21112;51.976;5.660;2023-07-13T09:57:16;100798.91;;;23.20
34901;BMP280;21112;51.976;5.660;2023-07-13T09:59:45;100797.13;;;23.55
34901;BMP280;21112;51.976;5.660;2023-07-13T10:02:23;100794.38;;;23.91
34901;BMP280;21112;51.976;5.660;2023-07-13T10:04:57;100795.56;;;24.09
34901;BMP280;21112;51.976;5.660;2023-07-13T10:07:25;100785.06;;;24.23
34901;BMP280;21112;51.976;5.660;2023-07-13T10:09:53;100791.97;;;23.44
34901;BMP280;21112;51.976;5.660;2023-07-13T10:12:22;100793.91;;;21.99
34901;BMP280;21112;51.976;5.660;2023-07-13T10:14:52;100805.78;;;20.56
34901;BMP280;21112;51.976;5.660;2023-07-13T10:17:26;100808.91;;;19.91
34901;BMP280;21112;51.976;5.660;2023-07-13T10:19:59;100815.25;;;19.70
34901;BMP280;21112;51.976;5.660;2023-07-13T10:22:37;100807.25;;;19.76
34901;BMP280;21112;51.976;5.660;2023-07-13T10:25:14;100818.38;;;19.89
34901;BMP280;21112;51.976;5.660;2023-07-13T10:27:43;100814.09;;;19.90
34901;BMP280;21112;51.976;5.660;2023-07-13T10:30:14;100813.13;;;20.20
34901;BMP280;21112;51.976;5.660;2023-07-13T10:32:44;100819.28;;;20.99
34901;BMP280;21112;51.976;5.660;2023-07-13T10:35:15;100807.44;;;22.85
34901;BMP280;21112;51.976;5.660;2023-07-13T10:37:48;100806.31;;;22.89
34901;BMP280;21112;51.976;5.660;2023-07-13T10:40:26;100812.22;;;21.68
34901;BMP280;21112;51.976;5.660;2023-07-13T10:42:56;100811.91;;;21.33
34901;BMP280;21112;51.976;5.660;2023-07-13T10:45:33;100814.28;;;20.97
34901;BMP280;21112;51.976;5.660;2023-07-13T10:48:01;100814.84;;;21.15
34901;BMP280;21112;51.976;5.660;2023-07-13T10:50:31;100825.53;;;21.46
34901;BMP280;21112;51.976;5.660;2023-07-13T10:53:02;100817.31;;;22.18
34901;BMP280;21112;51.976;5.660;2023-07-13T10:55:32;100805.56;;;23.10
34901;BMP280;21112;51.976;5.660;2023-07-13T10:58:01;100817.16;;;22.57
34901;BMP280;21112;51.976;5.660;2023-07-13T11:00:31;100835.13;;;21.82
34901;BMP280;21112;51.976;5.660;2023-07-13T11:02:59;100851.38;;;20.34
34901;BMP280;21112;51.976;5.660;2023-07-13T11:05:31;100845.28;;;20.51
34901;BMP280;21112;51.976;5.660;2023-07-13T11:08:12;100854.41;;;20.95
34901;BMP280;21112;51.976;5.660;2023-07-13T11:10:49;100852.06;;;21.58
34901;BMP280;21112;51.976;5.660;2023-07-13T11:16:38;100845.75;;;22.86
34901;BMP280;21112;51.976;5.660;2023-07-13T11:19:39;100838.63;;;24.17
34901;BMP280;21112;51.976;5.660;2023-07-13T11:22:22;100834.25;;;25.26
34901;BMP280;21112;51.976;5.660;2023-07-13T11:24:59;100828.44;;;24.48
34901;BMP280;21112;51.976;5.660;2023-07-13T11:27:42;100830.19;;;24.70
34901;BMP280;21112;51.976;5.660;2023-07-13T11:30:21;100828.59;;;24.25
34901;BMP280;21112;51.976;5.660;2023-07-13T11:32:51;100830.09;;;25.03
34901;BMP280;21112;51.976;5.660;2023-07-13T11:35:23;100825.28;;;24.67
34901;BMP280;21112;51.976;5.660;2023-07-13T11:37:54;100822.00;;;24.76
34901;BMP280;21112;51.976;5.660;2023-07-13T11:40:24;100830.31;;;23.46
34901;BMP280;21112;51.976;5.660;2023-07-13T11:43:01;100827.03;;;22.25
34901;BMP280;21112;51.976;5.660;2023-07-13T11:45:28;100828.09;;;21.46
34901;BMP280;21112;51.976;5.660;2023-07-13T11:47:55;100829.84;;;21.46
34901;BMP280;21112;51.976;5.660;2023-07-13T11:50:28;100848.00;;;21.68
34901;BMP280;21112;51.976;5.660;2023-07-13T11:53:01;100843.50;;;21.71
34901;BMP280;21112;51.976;5.660;2023-07-13T11:55:29;100851.19;;;21.84
34901;BMP280;21112;51.976;5.660;2023-07-13T11:57:58;100845.34;;;21.43
34901;BMP280;21112;51.976;5.660;2023-07-13T12:00:28;100836.31;;;22.87
34901;BMP280;21112;51.976;5.660;2023-07-13T12:02:59;100824.59;;;22.95
34901;BMP280;21112;51.976;5.660;2023-07-13T12:05:31;100831.72;;;23.15
34901;BMP280;21112;51.976;5.660;2023-07-13T12:08:08;100826.84;;;23.23
34901;BMP280;21112;51.976;5.660;2023-07-13T12:10:37;100811.41;;;24.47
34901;BMP280;21112;51.976;5.660;2023-07-13T12:13:05;100823.63;;;24.77
34901;BMP280;21112;51.976;5.660;2023-07-13T12:15:39;100813.41;;;24.22
34901;BMP280;21112;51.976;5.660;2023-07-13T12:18:12;100809.75;;;23.24
34901;BMP280;21112;51.976;5.660;2023-07-13T12:20:44;100823.22;;;22.31
34901;BMP280;21112;51.976;5.660;2023-07-13T12:23:22;100827.94;;;23.08
34901;BMP280;21112;51.976;5.660;2023-07-13T12:25:53;100815.22;;;23.65
34901;BMP280;21112;51.976;5.660;2023-07-13T12:28:34;100819.88;;;23.71
34901;BMP280;21112;51.976;5.660;2023-07-13T12:31:04;100817.97;;;23.16
34901;BMP280;21112;51.976;5.660;2023-07-13T12:33:33;100828.59;;;22.99
34901;BMP280;21112;51.976;5.660;2023-07-13T12:36:05;100814.81;;;23.47
34901;BMP280;21112;51.976;5.660;2023-07-13T12:38:37;100830.69;;;23.18
34901;BMP280;21112;51.976;5.660;2023-07-13T12:41:08;100824.75;;;22.81
34901;BMP280;21112;51.976;5.660;2023-07-13T12:43:36;100835.38;;;23.24
34901;BMP280;21112;51.976;5.660;2023-07-13T12:46:05;100832.56;;;23.61
34901;BMP280;21112;51.976;5.660;2023-07-13T12:48:43;100824.56;;;23.77
34901;BMP280;21112;51.976;5.660;2023-07-13T12:51:13;100827.34;;;23.63
34901;BMP280;21112;51.976;5.660;2023-07-13T12:53:47;100836.84;;;22.44
34901;BMP280;21112;51.976;5.660;2023-07-13T12:56:21;100839.22;;;22.22
34901;BMP280;21112;51.976;5.660;2023-07-13T12:58:56;100829.06;;;23.04
34901;BMP280;21112;51.976;5.660;2023-07-13T13:01:27;100826.19;;;23.78
34901;BMP280;21112;51.976;5.660;2023-07-13T13:04:00;100829.38;;;23.92
34901;BMP280;21112;51.976;5.660;2023-07-13T13:06:29;100830.44;;;23.55
34901;BMP280;21112;51.976;5.660;2023-07-13T13:08:59;100831.13;;;23.46
34901;BMP280;21112;51.976;5.660;2023-07-13T13:11:28;100826.75;;;23.59
34901;BMP280;21112;51.976;5.660;2023-07-13T13:13:55;100831.50;;;23.87
34901;BMP280;21112;51.976;5.660;2023-07-13T13:16:30;100828.72;;;23.56
34901;BMP280;21112;51.976;5.660;2023-07-13T13:18:59;100831.88;;;23.59
34901;BMP280;21112;51.976;5.660;2023-07-13T13:21:27;100846.38;;;23.37
34901;BMP280;21112;51.976;5.660;2023-07-13T13:23:55;100836.84;;;23.95
34901;BMP280;21112;51.976;5.660;2023-07-13T13:26:23;100833.22;;;24.75
34901;BMP280;21112;51.976;5.660;2023-07-13T13:28:51;100827.88;;;24.23
34901;BMP280;21112;51.976;5.660;2023-07-13T13:31:19;100829.03;;;24.08
34901;BMP280;21112;51.976;5.660;2023-07-13T13:33:46;100828.91;;;23.98
34901;BMP280;21112;51.976;5.660;2023-07-13T13:36:15;100830.66;;;25.06
34901;BMP280;21112;51.976;5.660;2023-07-13T13:38:43;100836.72;;;25.16
34901;BMP280;21112;51.976;5.660;2023-07-13T13:41:12;100836.34;;;24.89
34901;BMP280;21112;51.976;5.660;2023-07-13T13:43:41;100838.59;;;24.28
34901;BMP280;21112;51.976;5.660;2023-07-13T13:46:15;100829.16;;;24.61
34901;BMP280;21112;51.976;5.660;2023-07-13T13:48:44;100831.03;;;23.93
34901;BMP280;21112;51.976;5.660;2023-07-13T13:51:16;100834.16;;;24.41
34901;BMP280;21112;51.976;5.660;2023-07-13T13:53:44;100825.09;;;24.37
34901;BMP280;21112;51.976;5.660;2023-07-13T13:56:14;100836.41;;;24.23
34901;BMP280;21112;51.976;5.660;2023-07-13T13:58:44;100832.31;;;24.21
34901;BMP280;21112;51.976;5.660;2023-07-13T14:01:18;100838.22;;;22.73
34901;BMP280;21112;51.976;5.660;2023-07-13T14:03:46;100841.75;;;22.22
34901;BMP280;21112;51.976;5.660;2023-07-13T14:06:16;100843.28;;;22.37
34901;BMP280;21112;51.976;5.660;2023-07-13T14:08:45;100836.75;;;23.97
34901;BMP280;21112;51.976;5.660;2023-07-13T14:11:17;100827.56;;;24.92
34901;BMP280;21112;51.976;5.660;2023-07-13T14:13:51;100838.34;;;25.28